Millers, Virginia
Current Conditions -  °F | °C
As of 8:54 AM on Saturday 22 Nov 2014 (Local Time) from KRIC Reporting Station
Scattered Clouds Scattered Clouds  
Wind Chill: 28°   Ceiling: Unl
Heat Index: 33°   Visibility: 10mi
Dew Point: 21°   Wind: 6mph
Humidity: 61%   Direction: 190°S
Pressure: 30.56"   Gusts: NA
Location:  37.4458°N, 77.3237°W
Report Text: KRIC 221354Z 19005KT 10SM SCT300 01/M06 A3056 RMK AO2 SLP356 T00061061
Loading
Personal Weather Stations






























Interactive Weather Map New forecast layout! Learn more

10-Day Weather Forecast

Advertisements
Track Severe Weather on mobile